Doris Moran — WRU2125 — position and weather

sailwx.info

Track history (hours):
 
Tides and Currents Weather Stations Pressure Air Temp Water Temp Dewpoint Dewpoint Depression Visibility Wind Speed Wind Dir Waves Ship Positions

Doris Moran

Owner: MORAN TOWING CORPORATION, New Canaan, CT. More information available from US FCC via Universal Licensing System and Coast Guard Vessel Documentation Center.

Last reported at 2016-Jun-29 21:33 UTC. Time now 2016-Jun-30 06:57 UTC.
Position N 40°47' W 073°60'.

Length 36 m; draft 5.3 m.

Type: Tug. MMSI: 366939790.

Date/timePositionNaut miles runAvg speedWind from/ knotsBaromVisibWave heightAir tempDewpointWater temp
2016-Jun-29 21:33N 40°47' W 073°60'7 7.0
2016-Jun-29 20:33N 40°40' W 074°01'3 2.6
2016-Jun-29 19:33N 40°39' W 074°04'3 2.7
2016-Jun-29 18:23N 40°38' W 074°08'0 0.0
2016-Jun-29 17:33N 40°38' W 074°08'0 0.2
2016-Jun-29 16:33N 40°39' W 074°08'2 2.4
2016-Jun-29 15:33N 40°41' W 074°09'3 2.6
2016-Jun-29 14:32N 40°38' W 074°08'0 0.0
2016-Jun-29 13:29N 40°38' W 074°08'0 0.0
2016-Jun-29 12:32N 40°38' W 074°08'0 0.0
2016-Jun-29 11:32N 40°38' W 074°08'0 0.0
2016-Jun-29 10:32N 40°38' W 074°08'0 0.0
2016-Jun-29 09:32N 40°38' W 074°08'0 0.0
2016-Jun-29 08:29N 40°38' W 074°08'0 0.0
2016-Jun-29 07:29N 40°38' W 074°08'0 0.0
2016-Jun-29 06:32N 40°38' W 074°08'0 0.0
2016-Jun-29 05:32N 40°38' W 074°08'0 0.0
2016-Jun-29 04:29N 40°38' W 074°08'0 0.0
2016-Jun-29 03:32N 40°38' W 074°08'0 0.0
2016-Jun-29 02:32N 40°38' W 074°08'0 0.0
2016-Jun-29 01:32N 40°38' W 074°08'0 0.0
2016-Jun-29 00:32N 40°38' W 074°08'0 0.0
2016-Jun-28 23:29N 40°38' W 074°08'1 1.2
2016-Jun-28 22:33N 40°39' W 074°09'1 1.5
2016-Jun-28 21:33N 40°40' W 074°08'1 1.2
2016-Jun-28 20:33N 40°39' W 074°09'4 4.0
2016-Jun-28 19:33N 40°39' W 074°03'1 0.7
2016-Jun-28 18:34N 40°39' W 074°04'3 2.8
2016-Jun-28 17:33N 40°38' W 074°08'0 0.0
2016-Jun-28 16:33N 40°38' W 074°08'2 1.8
2016-Jun-28 15:24N 40°39' W 074°10'2 2.5
2016-Jun-28 14:33N 40°38' W 074°08'0 0.0
2016-Jun-28 13:30N 40°38' W 074°08'0 0.0
2016-Jun-28 12:24N 40°38' W 074°08'0 0.0
2016-Jun-28 11:33N 40°38' W 074°08'0 0.0
2016-Jun-28 10:30N 40°38' W 074°08'0 0.0
2016-Jun-28 09:33N 40°38' W 074°08'0 0.0
2016-Jun-28 08:33N 40°38' W 074°08'0 0.0
2016-Jun-28 07:33N 40°38' W 074°08'0 0.0
2016-Jun-28 06:33N 40°38' W 074°08'0 0.0
2016-Jun-28 04:33N 40°38' W 074°08'0 0.0
2016-Jun-28 03:33N 40°38' W 074°08'0 0.0
2016-Jun-28 02:27N 40°38' W 074°08'0 0.0
2016-Jun-28 01:33N 40°38' W 074°08'0 0.3
2016-Jun-28 00:33N 40°39' W 074°07'4 3.9
2016-Jun-27 23:33N 40°37' W 074°03'4 0.9
2016-Jun-27 19:15N 40°38' W 074°08'4 5.6
2016-Jun-27 18:33N 40°40' W 074°03'2 0.2
2016-Jun-27 09:33N 40°39' W 074°05'2 2.3
2016-Jun-27 08:33N 40°38' W 074°08'0 0.0
2016-Jun-27 07:33N 40°38' W 074°08'0 0.0
2016-Jun-27 06:34N 40°38' W 074°08'0 0.0
2016-Jun-27 05:33N 40°38' W 074°08'0 0.0
2016-Jun-27 04:33N 40°38' W 074°08'0 0.0
2016-Jun-27 03:33N 40°38' W 074°08'1010.1
2016-Jun-27 02:34N 40°47' W 074°00'1 0.0
2016-Jun-25 19:34N 40°46' W 074°00'3 2.8
2016-Jun-25 18:34N 40°44' W 073°58'7 6.4
2016-Jun-25 17:32N 40°48' W 073°51'56 6.3
2016-Jun-25 08:32N 41°07' W 072°41'9 9.0
2016-Jun-25 07:33N 41°09' W 072°30'10 9.9
2016-Jun-25 06:33N 41°12' W 072°17'88 9.7
2016-Jun-24 21:33N 41°47' W 070°30'6 5.6
2016-Jun-24 20:32N 41°52' W 070°27'4 3.6
2016-Jun-24 19:33N 41°55' W 070°26'17 7.7
2016-Jun-24 17:23N 42°11' W 070°35'910.9
2016-Jun-24 16:33N 42°18' W 070°43'1010.0
2016-Jun-24 15:34N 42°22' W 070°55'6 6.2
2016-Jun-24 14:34N 42°23' W 071°03'1 0.6
2016-Jun-24 13:33N 42°23' W 071°03'0 0.0
2016-Jun-24 12:33N 42°23' W 071°03'1 0.8
2016-Jun-24 11:33N 42°23' W 071°04'0 0.0
2016-Jun-24 10:33N 42°23' W 071°04'0 0.0
2016-Jun-24 09:33N 42°23' W 071°04'0 0.0
2016-Jun-24 08:33N 42°23' W 071°04'0 0.0
2016-Jun-24 07:30N 42°23' W 071°04'0 0.0
2016-Jun-24 04:33N 42°23' W 071°04'0 0.0
2016-Jun-24 03:18N 42°23' W 071°04'1 0.8
2016-Jun-24 02:34N 42°23' W 071°03'5 5.4
2016-Jun-24 01:33N 42°22' W 070°56'10 9.6
2016-Jun-24 00:33N 42°19' W 070°43'1211.8
2016-Jun-23 23:33N 42°10' W 070°33'59 5.9
2016-Jun-23 13:33N 41°20' W 071°15'1010.0
2016-Jun-23 12:33N 41°18' W 071°28'3811.5
2016-Jun-23 09:15N 41°12' W 072°18'913.0
2016-Jun-23 08:33N 41°10' W 072°29'1211.6
2016-Jun-23 07:33N 41°10' W 072°45'60 3.7
2016-Jun-22 15:09N 40°45' W 073°58'5 8.5
2016-Jun-22 14:33N 40°41' W 074°01'4 3.6
2016-Jun-22 13:29N 40°39' W 074°06'0 0.0
2016-Jun-22 12:25N 40°39' W 074°06'0 0.0
2016-Jun-22 11:33N 40°39' W 074°06'0 0.0
2016-Jun-22 10:33N 40°39' W 074°06'0 0.0
2016-Jun-22 09:31N 40°39' W 074°06'0 0.0
2016-Jun-22 08:31N 40°39' W 074°06'0 0.0
2016-Jun-22 05:31N 40°39' W 074°06'0 0.0
2016-Jun-22 04:31N 40°39' W 074°06'0 0.1
2016-Jun-22 03:33N 40°39' W 074°06'6 5.7
2016-Jun-22 02:32N 40°34' W 074°02'44 8.6
2016-Jun-21 21:24N 39°50' W 073°58'8 9.2
2016-Jun-21 20:33N 39°42' W 074°01'9 9.2
2016-Jun-21 19:33N 39°34' W 074°05'60 7.3
2016-Jun-21 11:19N 38°57' W 075°06'4 5.7
2016-Jun-21 10:33N 39°00' W 075°09'4 3.6
2016-Jun-21 09:33N 39°04' W 075°10'1111.1
2016-Jun-21 08:33N 39°13' W 075°18'1212.1
2016-Jun-21 07:33N 39°22' W 075°28'14 6.9
2016-Jun-21 05:33N 39°33' W 075°40'7 7.1
2016-Jun-21 04:33N 39°32' W 075°49'8 7.7
2016-Jun-21 03:33N 39°28' W 075°58'9 9.5
2016-Jun-21 02:33N 39°22' W 076°07'9 9.3
2016-Jun-21 01:33N 39°15' W 076°14'8 8.1
2016-Jun-21 00:33N 39°10' W 076°22'5 5.1
2016-Jun-20 23:33N 39°13' W 076°28'0 0.0
2016-Jun-20 22:32N 39°13' W 076°28'0 0.0
2016-Jun-20 19:26N 39°13' W 076°28'0 0.0
2016-Jun-20 18:06N 39°13' W 076°28'0 0.0
2016-Jun-20 17:27N 39°13' W 076°28'0 0.0
2016-Jun-20 16:26N 39°13' W 076°28'0 0.0
2016-Jun-20 15:20N 39°13' W 076°28'0 0.0
2016-Jun-20 14:33N 39°13' W 076°28'0 0.0
2016-Jun-20 13:33N 39°13' W 076°28'0 0.0
2016-Jun-20 12:33N 39°13' W 076°28'0 0.0
2016-Jun-20 11:33N 39°13' W 076°28'0 0.0
2016-Jun-20 10:33N 39°13' W 076°28'0 0.0
2016-Jun-20 09:33N 39°13' W 076°28'0 0.0
2016-Jun-20 08:34N 39°13' W 076°28'0 0.0
2016-Jun-20 07:33N 39°13' W 076°28'0 0.0
2016-Jun-20 06:33N 39°13' W 076°28'0 0.0
2016-Jun-20 05:33N 39°13' W 076°28'0 0.0
2016-Jun-20 04:33N 39°13' W 076°28'0 0.0
2016-Jun-20 03:33N 39°13' W 076°28'0 0.0
2016-Jun-20 02:33N 39°13' W 076°28'0 0.0
2016-Jun-20 01:33N 39°13' W 076°28'  
Track history (hours):
 
Tides and Currents Weather Stations Pressure Air Temp Water Temp Dewpoint Dewpoint Depression Visibility Wind Speed Wind Dir Waves Ship Positions

Doris Moran

Owner: MORAN TOWING CORPORATION, New Canaan, CT. More information available from US FCC via Universal Licensing System and Coast Guard Vessel Documentation Center.

Last reported at 2016-Jun-29 21:33 UTC. Time now 2016-Jun-30 06:57 UTC.
Position N 40°47' W 073°60'.

Length 36 m; draft 5.3 m.

Type: Tug. MMSI: 366939790.

Date/timePositionNaut miles runAvg speedWind from/ knotsBaromVisibWave heightAir tempDewpointWater temp
2016-Jun-29 21:33N 40°47' W 073°60'7 7.0
2016-Jun-29 20:33N 40°40' W 074°01'3 2.6
2016-Jun-29 19:33N 40°39' W 074°04'3 2.7
2016-Jun-29 18:23N 40°38' W 074°08'0 0.0
2016-Jun-29 17:33N 40°38' W 074°08'0 0.2
2016-Jun-29 16:33N 40°39' W 074°08'2 2.4
2016-Jun-29 15:33N 40°41' W 074°09'3 2.6
2016-Jun-29 14:32N 40°38' W 074°08'0 0.0
2016-Jun-29 13:29N 40°38' W 074°08'0 0.0
2016-Jun-29 12:32N 40°38' W 074°08'0 0.0
2016-Jun-29 11:32N 40°38' W 074°08'0 0.0
2016-Jun-29 10:32N 40°38' W 074°08'0 0.0
2016-Jun-29 09:32N 40°38' W 074°08'0 0.0
2016-Jun-29 08:29N 40°38' W 074°08'0 0.0
2016-Jun-29 07:29N 40°38' W 074°08'0 0.0
2016-Jun-29 06:32N 40°38' W 074°08'0 0.0
2016-Jun-29 05:32N 40°38' W 074°08'0 0.0
2016-Jun-29 04:29N 40°38' W 074°08'0 0.0
2016-Jun-29 03:32N 40°38' W 074°08'0 0.0
2016-Jun-29 02:32N 40°38' W 074°08'0 0.0
2016-Jun-29 01:32N 40°38' W 074°08'0 0.0
2016-Jun-29 00:32N 40°38' W 074°08'0 0.0
2016-Jun-28 23:29N 40°38' W 074°08'1 1.2
2016-Jun-28 22:33N 40°39' W 074°09'1 1.5
2016-Jun-28 21:33N 40°40' W 074°08'1 1.2
2016-Jun-28 20:33N 40°39' W 074°09'4 4.0
2016-Jun-28 19:33N 40°39' W 074°03'1 0.7
2016-Jun-28 18:34N 40°39' W 074°04'3 2.8
2016-Jun-28 17:33N 40°38' W 074°08'0 0.0
2016-Jun-28 16:33N 40°38' W 074°08'2 1.8
2016-Jun-28 15:24N 40°39' W 074°10'2 2.5
2016-Jun-28 14:33N 40°38' W 074°08'0 0.0
2016-Jun-28 13:30N 40°38' W 074°08'0 0.0
2016-Jun-28 12:24N 40°38' W 074°08'0 0.0
2016-Jun-28 11:33N 40°38' W 074°08'0 0.0
2016-Jun-28 10:30N 40°38' W 074°08'0 0.0
2016-Jun-28 09:33N 40°38' W 074°08'0 0.0
2016-Jun-28 08:33N 40°38' W 074°08'0 0.0
2016-Jun-28 07:33N 40°38' W 074°08'0 0.0
2016-Jun-28 06:33N 40°38' W 074°08'0 0.0
2016-Jun-28 04:33N 40°38' W 074°08'0 0.0
2016-Jun-28 03:33N 40°38' W 074°08'0 0.0
2016-Jun-28 02:27N 40°38' W 074°08'0 0.0
2016-Jun-28 01:33N 40°38' W 074°08'0 0.3
2016-Jun-28 00:33N 40°39' W 074°07'4 3.9
2016-Jun-27 23:33N 40°37' W 074°03'4 0.9
2016-Jun-27 19:15N 40°38' W 074°08'4 5.6
2016-Jun-27 18:33N 40°40' W 074°03'2 0.2
2016-Jun-27 09:33N 40°39' W 074°05'2 2.3
2016-Jun-27 08:33N 40°38' W 074°08'0 0.0
2016-Jun-27 07:33N 40°38' W 074°08'0 0.0
2016-Jun-27 06:34N 40°38' W 074°08'0 0.0
2016-Jun-27 05:33N 40°38' W 074°08'0 0.0
2016-Jun-27 04:33N 40°38' W 074°08'0 0.0
2016-Jun-27 03:33N 40°38' W 074°08'1010.1
2016-Jun-27 02:34N 40°47' W 074°00'1 0.0
2016-Jun-25 19:34N 40°46' W 074°00'3 2.8
2016-Jun-25 18:34N 40°44' W 073°58'7 6.4
2016-Jun-25 17:32N 40°48' W 073°51'56 6.3
2016-Jun-25 08:32N 41°07' W 072°41'9 9.0
2016-Jun-25 07:33N 41°09' W 072°30'10 9.9
2016-Jun-25 06:33N 41°12' W 072°17'88 9.7
2016-Jun-24 21:33N 41°47' W 070°30'6 5.6
2016-Jun-24 20:32N 41°52' W 070°27'4 3.6
2016-Jun-24 19:33N 41°55' W 070°26'17 7.7
2016-Jun-24 17:23N 42°11' W 070°35'910.9
2016-Jun-24 16:33N 42°18' W 070°43'1010.0
2016-Jun-24 15:34N 42°22' W 070°55'6 6.2
2016-Jun-24 14:34N 42°23' W 071°03'1 0.6
2016-Jun-24 13:33N 42°23' W 071°03'0 0.0
2016-Jun-24 12:33N 42°23' W 071°03'1 0.8
2016-Jun-24 11:33N 42°23' W 071°04'0 0.0
2016-Jun-24 10:33N 42°23' W 071°04'0 0.0
2016-Jun-24 09:33N 42°23' W 071°04'0 0.0
2016-Jun-24 08:33N 42°23' W 071°04'0 0.0
2016-Jun-24 07:30N 42°23' W 071°04'0 0.0
2016-Jun-24 04:33N 42°23' W 071°04'0 0.0
2016-Jun-24 03:18N 42°23' W 071°04'1 0.8
2016-Jun-24 02:34N 42°23' W 071°03'5 5.4
2016-Jun-24 01:33N 42°22' W 070°56'10 9.6
2016-Jun-24 00:33N 42°19' W 070°43'1211.8
2016-Jun-23 23:33N 42°10' W 070°33'59 5.9
2016-Jun-23 13:33N 41°20' W 071°15'1010.0
2016-Jun-23 12:33N 41°18' W 071°28'3811.5
2016-Jun-23 09:15N 41°12' W 072°18'913.0
2016-Jun-23 08:33N 41°10' W 072°29'1211.6
2016-Jun-23 07:33N 41°10' W 072°45'60 3.7
2016-Jun-22 15:09N 40°45' W 073°58'5 8.5
2016-Jun-22 14:33N 40°41' W 074°01'4 3.6
2016-Jun-22 13:29N 40°39' W 074°06'0 0.0
2016-Jun-22 12:25N 40°39' W 074°06'0 0.0
2016-Jun-22 11:33N 40°39' W 074°06'0 0.0
2016-Jun-22 10:33N 40°39' W 074°06'0 0.0
2016-Jun-22 09:31N 40°39' W 074°06'0 0.0
2016-Jun-22 08:31N 40°39' W 074°06'0 0.0
2016-Jun-22 05:31N 40°39' W 074°06'0 0.0
2016-Jun-22 04:31N 40°39' W 074°06'0 0.1
2016-Jun-22 03:33N 40°39' W 074°06'6 5.7
2016-Jun-22 02:32N 40°34' W 074°02'44 8.6
2016-Jun-21 21:24N 39°50' W 073°58'8 9.2
2016-Jun-21 20:33N 39°42' W 074°01'9 9.2
2016-Jun-21 19:33N 39°34' W 074°05'60 7.3
2016-Jun-21 11:19N 38°57' W 075°06'4 5.7
2016-Jun-21 10:33N 39°00' W 075°09'4 3.6
2016-Jun-21 09:33N 39°04' W 075°10'1111.1
2016-Jun-21 08:33N 39°13' W 075°18'1212.1
2016-Jun-21 07:33N 39°22' W 075°28'14 6.9
2016-Jun-21 05:33N 39°33' W 075°40'7 7.1
2016-Jun-21 04:33N 39°32' W 075°49'8 7.7
2016-Jun-21 03:33N 39°28' W 075°58'9 9.5
2016-Jun-21 02:33N 39°22' W 076°07'9 9.3
2016-Jun-21 01:33N 39°15' W 076°14'8 8.1
2016-Jun-21 00:33N 39°10' W 076°22'5 5.1
2016-Jun-20 23:33N 39°13' W 076°28'0 0.0
2016-Jun-20 22:32N 39°13' W 076°28'0 0.0
2016-Jun-20 19:26N 39°13' W 076°28'0 0.0
2016-Jun-20 18:06N 39°13' W 076°28'0 0.0
2016-Jun-20 17:27N 39°13' W 076°28'0 0.0
2016-Jun-20 16:26N 39°13' W 076°28'0 0.0
2016-Jun-20 15:20N 39°13' W 076°28'0 0.0
2016-Jun-20 14:33N 39°13' W 076°28'0 0.0
2016-Jun-20 13:33N 39°13' W 076°28'0 0.0
2016-Jun-20 12:33N 39°13' W 076°28'0 0.0
2016-Jun-20 11:33N 39°13' W 076°28'0 0.0
2016-Jun-20 10:33N 39°13' W 076°28'0 0.0
2016-Jun-20 09:33N 39°13' W 076°28'0 0.0
2016-Jun-20 08:34N 39°13' W 076°28'0 0.0
2016-Jun-20 07:33N 39°13' W 076°28'0 0.0
2016-Jun-20 06:33N 39°13' W 076°28'0 0.0
2016-Jun-20 05:33N 39°13' W 076°28'0 0.0
2016-Jun-20 04:33N 39°13' W 076°28'0 0.0
2016-Jun-20 03:33N 39°13' W 076°28'0 0.0
2016-Jun-20 02:33N 39°13' W 076°28'0 0.0
2016-Jun-20 01:33N 39°13' W 076°28'  

Dump ship's entire track history